Heather, Washington
Current Conditions -  °F | °C
As of 5:53 PM on Saturday 20 Dec 2014 (Local Time) from KHQM Reporting Station
Light Rain Light Rain  
Wind Chill: 55°   Ceiling: 900
Heat Index: 55°   Visibility: 4mi
Dew Point: 54°   Wind: 29mph
Humidity: 96%   Direction: 220°SW
Pressure: 29.51"   Gusts: 39mph
Location:  46.8576°N, 123.936°W
Report Text: KHQM 210153Z AUTO 22025G34KT 4SM -RA BR OVC009 13/12 A2951 RMK AO2 PK WND 22036/0113 SLP997 P0006 T01280122
Loading
Personal Weather Stations






























Interactive Weather Map New forecast layout! Learn more

10-Day Weather Forecast

Advertisements
Track Severe Weather on mobile